Time;durP1;ratioP1;P1;durP2;ratioP2;P2;SDS_P1;SDS_P2;PMS_P1;PMS_P2;Temp;Humidity;BMP_temperature;BMP_pressure;BME280_temperature;BME280_humidity;BME280_pressure;Samples;Min_cycle;Max_cycle;Signal;HPM_P1;HPM_P2
2022/09/23 00:00:23;;;;;;;4.53;4.07;;;;;;;;;;6269571;22;20168;-87
2022/09/23 00:02:50;;;;;;;4.67;3.60;;;9.70;99.90;;;;;;6269066;22;20509;-87
2022/09/23 00:05:17;;;;;;;6.85;3.85;;;;;;;;;;6275338;22;20707;-88
2022/09/23 00:07:43;;;;;;;4.93;3.85;;;9.40;99.90;;;;;;6269980;22;20164;-86
2022/09/23 00:10:09;;;;;;;6.15;3.38;;;9.30;99.90;;;;;;6272980;22;20172;-88
2022/09/23 00:12:35;;;;;;;9.55;4.00;;;9.30;99.90;;;;;;6272274;22;20159;-87
2022/09/23 00:15:00;;;;;;;4.40;3.53;;;9.30;99.90;;;;;;6271193;22;20160;-87
2022/09/23 00:17:26;;;;;;;5.73;4.30;;;9.20;99.90;;;;;;6271313;22;20158;-87
2022/09/23 00:19:54;;;;;;;4.90;3.73;;;9.20;99.90;;;;;;6275216;22;20911;-88
2022/09/23 00:22:20;;;;;;;4.50;3.50;;;9.20;99.90;;;;;;6270642;22;20477;-87
2022/09/23 00:24:45;;;;;;;5.10;3.50;;;9.20;99.90;;;;;;6272949;22;20132;-87
2022/09/23 00:27:11;;;;;;;3.80;3.30;;;9.20;99.90;;;;;;6266149;22;20160;-87
2022/09/23 00:29:37;;;;;;;5.47;3.73;;;;;;;;;;6271691;22;20186;-87
2022/09/23 00:32:03;;;;;;;6.00;3.30;;;9.10;99.90;;;;;;6255621;22;20198;-87
2022/09/23 00:34:29;;;;;;;2.90;2.57;;;;;;;;;;6267008;22;20933;-87
2022/09/23 00:36:55;;;;;;;13.32;3.80;;;9.20;99.90;;;;;;6270853;22;20160;-86
2022/09/23 00:39:25;;;;;;;3.67;2.78;;;9.20;99.90;;;;;;6270008;22;20208;-87
2022/09/23 00:41:51;;;;;;;3.95;3.25;;;9.20;99.90;;;;;;6268644;22;20852;-88
2022/09/23 00:44:39;;;;;;;3.70;2.80;;;9.30;99.90;;;;;;6268811;22;20185;-87
2022/09/23 00:47:09;;;;;;;4.75;3.35;;;9.30;99.90;;;;;;6271519;22;20171;-87
2022/09/23 00:49:35;;;;;;;3.97;3.40;;;9.30;99.90;;;;;;6269435;22;20601;-87
2022/09/23 00:52:10;;;;;;;3.33;3.03;;;9.20;99.90;;;;;;6268560;22;20148;-87
2022/09/23 00:54:36;;;;;;;3.13;2.90;;;9.10;99.90;;;;;;6270708;22;20156;-88
2022/09/23 00:57:04;;;;;;;7.07;3.15;;;9.10;99.90;;;;;;6263775;22;20183;-87
2022/09/23 00:59:30;;;;;;;6.15;3.95;;;9.10;99.90;;;;;;6274356;22;20744;-88
2022/09/23 01:01:57;;;;;;;6.28;3.60;;;9.10;99.90;;;;;;6262526;22;20909;-86
2022/09/23 01:04:25;;;;;;;10.02;3.45;;;9.00;99.90;;;;;;6269964;22;20156;-87
2022/09/23 01:06:51;;;;;;;4.15;3.75;;;9.00;99.90;;;;;;6268550;22;20234;-87
2022/09/23 01:09:17;;;;;;;3.10;2.73;;;9.00;99.90;;;;;;6258640;22;20186;-88
2022/09/23 01:11:56;;;;;;;4.38;3.30;;;9.00;99.90;;;;;;6268658;22;20156;-88
2022/09/23 01:14:55;;;;;;;4.15;3.40;;;9.10;99.90;;;;;;6263187;22;20162;-87
2022/09/23 01:17:46;;;;;;;5.40;3.67;;;9.10;99.90;;;;;;6257292;22;20186;-88
2022/09/23 01:20:30;;;;;;;5.47;3.58;;;9.00;99.90;;;;;;6268596;22;20193;-87
2022/09/23 01:23:23;;;;;;;4.32;3.30;;;9.10;99.90;;;;;;6268345;22;20166;-88
2022/09/23 01:26:29;;;;;;;5.57;3.78;;;9.10;99.90;;;;;;6272687;22;20737;-88
2022/09/23 01:29:09;;;;;;;3.83;3.40;;;9.20;99.90;;;;;;6267726;22;20193;-87
2022/09/23 01:31:42;;;;;;;7.55;3.40;;;9.10;99.90;;;;;;6269470;22;20172;-86
2022/09/23 01:34:17;;;;;;;4.00;3.58;;;9.10;99.90;;;;;;6267563;22;20717;-86
2022/09/23 01:36:53;;;;;;;5.32;3.35;;;9.10;99.90;;;;;;6267862;22;20170;-87
2022/09/23 01:39:37;;;;;;;5.65;3.60;;;9.10;99.90;;;;;;6262669;22;20175;-87
2022/09/23 01:42:21;;;;;;;5.15;3.70;;;9.10;99.90;;;;;;6265230;22;20140;-87
2022/09/23 01:45:00;;;;;;;8.85;3.90;;;9.00;99.90;;;;;;6271656;22;20143;-85
2022/09/23 01:47:31;;;;;;;6.72;4.18;;;8.90;99.90;;;;;;6273168;22;20148;-87
2022/09/23 01:50:02;;;;;;;6.80;4.72;;;8.80;99.90;;;;;;6272201;22;20182;-87
2022/09/23 01:52:39;;;;;;;4.30;3.55;;;8.90;99.90;;;;;;6270933;22;20140;-87
2022/09/23 01:55:27;;;;;;;4.60;3.65;;;8.80;99.90;;;;;;6273792;22;20150;-88
2022/09/23 01:58:15;;;;;;;5.50;4.50;;;8.80;99.90;;;;;;6273380;22;20186;-87
2022/09/23 02:00:51;;;;;;;5.07;4.13;;;8.60;99.90;;;;;;6275608;22;20219;-86
2022/09/23 02:03:26;;;;;;;6.50;4.70;;;8.70;99.90;;;;;;6271839;22;20229;-87
2022/09/23 02:06:19;;;;;;;5.30;4.80;;;8.40;99.90;;;;;;6268120;22;20151;-87
2022/09/23 02:08:59;;;;;;;5.18;4.38;;;8.20;99.90;;;;;;6253232;22;20152;-87
2022/09/23 02:11:25;;;;;;;8.60;4.68;;;7.90;99.90;;;;;;6273773;22;20171;-87
2022/09/23 02:14:02;;;;;;;7.03;4.50;;;8.30;99.90;;;;;;6270735;22;20155;-87
2022/09/23 02:16:49;;;;;;;6.00;4.82;;;7.80;99.90;;;;;;6269771;22;20147;-88
2022/09/23 02:19:42;;;;;;;6.10;4.68;;;7.70;99.90;;;;;;6273134;22;20187;-86
2022/09/23 02:22:13;;;;;;;6.60;4.82;;;7.90;99.90;;;;;;6267086;22;20558;-85
2022/09/23 02:24:39;;;;;;;7.90;5.30;;;;;;;;;;6242016;23;20152;-83
2022/09/23 02:27:17;;;;;;;7.70;5.35;;;7.80;99.90;;;;;;6241369;23;20240;-84
2022/09/23 02:30:03;;;;;;;9.35;5.68;;;7.70;99.90;;;;;;6239572;23;20184;-83
2022/09/23 02:32:51;;;;;;;6.30;4.97;;;7.70;99.90;;;;;;6217208;23;20160;-85
2022/09/23 02:35:34;;;;;;;7.63;5.68;;;7.30;99.90;;;;;;6243642;22;20159;-83
2022/09/23 02:38:06;;;;;;;10.27;5.13;;;7.30;99.90;;;;;;6241943;22;20222;-83
2022/09/23 02:40:50;;;;;;;7.50;5.65;;;7.10;99.90;;;;;;6240336;23;20172;-82
2022/09/23 02:43:22;;;;;;;8.88;5.90;;;7.00;99.90;;;;;;6240891;23;20532;-83
2022/09/23 02:45:48;;;;;;;8.32;5.60;;;7.00;99.90;;;;;;6240433;23;20469;-84
2022/09/23 02:48:26;;;;;;;7.00;5.53;;;7.00;99.90;;;;;;6243699;23;20156;-86
2022/09/23 02:50:53;;;;;;;6.93;5.57;;;6.90;99.90;;;;;;6244965;22;20245;-87
2022/09/23 02:53:21;;;;;;;5.60;5.05;;;6.90;99.90;;;;;;6241630;22;20172;-87
2022/09/23 02:55:46;;;;;;;6.18;5.15;;;6.80;99.90;;;;;;6248407;22;20163;-84
2022/09/23 02:58:12;;;;;;;7.73;6.10;;;6.80;99.90;;;;;;6244760;23;20267;-84
2022/09/23 03:01:04;;;;;;;17.02;6.60;;;6.80;99.90;;;;;;6248518;22;20165;-84
2022/09/23 03:03:42;;;;;;;7.30;5.55;;;6.80;99.90;;;;;;6250957;23;20831;-85
2022/09/23 03:06:26;;;;;;;9.00;5.57;;;6.70;99.90;;;;;;6248889;22;20174;-84
2022/09/23 03:09:07;;;;;;;8.52;6.03;;;6.60;99.90;;;;;;6248558;22;20637;-85
2022/09/23 03:11:38;;;;;;;9.23;6.90;;;6.60;99.90;;;;;;6245252;23;20160;-84
2022/09/23 03:14:22;;;;;;;6.35;5.03;;;6.50;99.90;;;;;;6245021;23;20567;-83
2022/09/23 03:17:02;;;;;;;6.70;4.97;;;;;;;;;;6245920;23;20264;-85
2022/09/23 03:19:55;;;;;;;7.22;6.43;;;6.50;99.90;;;;;;6246538;23;20190;-84
2022/09/23 03:22:33;;;;;;;9.48;5.93;;;6.50;99.90;;;;;;6247970;22;20121;-84
2022/09/23 03:25:05;;;;;;;8.80;6.15;;;6.70;99.90;;;;;;6247366;22;20155;-85
2022/09/23 03:27:33;;;;;;;8.98;5.30;;;6.70;99.90;;;;;;6245921;23;20133;-84
2022/09/23 03:30:00;;;;;;;6.43;5.10;;;6.70;99.90;;;;;;6242844;22;20191;-82
2022/09/23 03:32:27;;;;;;;10.02;7.28;;;6.60;99.90;;;;;;6246483;22;20141;-83
2022/09/23 03:34:57;;;;;;;7.25;6.45;;;6.60;99.90;;;;;;6245919;22;20159;-82
2022/09/23 03:37:46;;;;;;;6.90;5.82;;;6.60;99.90;;;;;;6250699;23;20167;-85
2022/09/23 03:40:14;;;;;;;10.60;5.88;;;6.50;99.90;;;;;;6251181;22;20172;-85
2022/09/23 03:42:40;;;;;;;7.35;6.25;;;6.50;99.90;;;;;;6245977;23;20635;-85
2022/09/23 03:45:12;;;;;;;6.90;6.20;;;6.30;99.90;;;;;;6251661;22;20149;-84
2022/09/23 03:47:38;;;;;;;8.48;6.18;;;;;;;;;;6252077;22;20125;-84
2022/09/23 03:50:05;;;;;;;11.70;6.65;;;6.20;99.90;;;;;;6260598;22;20286;-86
2022/09/23 03:52:30;;;;;;;8.85;6.18;;;6.20;99.90;;;;;;6286714;22;20172;-87
2022/09/23 03:54:56;;;;;;;7.53;6.53;;;6.20;99.90;;;;;;6279025;22;20186;-87
2022/09/23 03:57:23;;;;;;;7.32;6.63;;;6.20;99.90;;;;;;6277748;22;20241;-87
2022/09/23 03:59:49;;;;;;;9.63;6.93;;;6.10;99.90;;;;;;6277943;22;20210;-86
2022/09/23 04:02:16;;;;;;;7.15;6.30;;;6.20;99.90;;;;;;6273481;22;20680;-87
2022/09/23 04:04:42;;;;;;;6.82;6.07;;;6.20;99.90;;;;;;6287444;22;20160;-86
2022/09/23 04:07:09;;;;;;;11.25;6.82;;;6.10;99.90;;;;;;6276770;22;20182;-86
2022/09/23 04:09:35;;;;;;;7.93;6.18;;;6.10;99.90;;;;;;6293213;22;20246;-86
2022/09/23 04:12:02;;;;;;;8.00;6.40;;;6.00;99.90;;;;;;6267562;22;20151;-87
2022/09/23 04:14:28;;;;;;;7.72;6.43;;;6.00;99.90;;;;;;6268665;22;20155;-87
2022/09/23 04:16:54;;;;;;;15.60;7.17;;;;;;;;;;6272046;22;20496;-87
2022/09/23 04:19:19;;;;;;;10.40;6.83;;;5.90;99.90;;;;;;6278711;22;20433;-87
2022/09/23 04:21:45;;;;;;;9.40;7.60;;;5.90;99.90;;;;;;6270216;22;20385;-88
2022/09/23 04:24:11;;;;;;;8.53;7.07;;;;;;;;;;6290433;22;20163;-87
2022/09/23 04:26:38;;;;;;;7.68;6.85;;;5.80;99.90;;;;;;6278624;22;20210;-87
2022/09/23 04:29:04;;;;;;;7.82;6.88;;;5.70;99.90;;;;;;6274414;22;20496;-87
2022/09/23 04:31:31;;;;;;;7.97;6.93;;;5.60;99.90;;;;;;6275633;22;20158;-88
2022/09/23 04:33:58;;;;;;;10.43;6.93;;;;;;;;;;6276897;22;20274;-87
2022/09/23 04:36:25;;;;;;;9.63;6.18;;;5.80;99.90;;;;;;6272948;22;20548;-87
2022/09/23 04:38:51;;;;;;;10.18;7.05;;;5.80;99.90;;;;;;6276849;22;20202;-87
2022/09/23 04:41:17;;;;;;;8.70;7.10;;;;;;;;;;6272504;22;20223;-87
2022/09/23 04:43:43;;;;;;;8.60;6.82;;;5.80;99.90;;;;;;6274087;22;20194;-88
2022/09/23 04:46:11;;;;;;;7.78;6.97;;;5.80;99.90;;;;;;6274563;22;20151;-87
2022/09/23 04:48:38;;;;;;;10.70;7.10;;;6.50;99.90;;;;;;6273805;22;20156;-88
2022/09/23 04:51:12;;;;;;;14.07;7.25;;;5.60;99.90;;;;;;6274955;22;20173;-87
2022/09/23 04:53:40;;;;;;;22.48;13.63;;;5.70;99.90;;;;;;6270666;22;20171;-88
2022/09/23 04:56:08;;;;;;;19.88;14.98;;;5.70;99.90;;;;;;6271578;22;20155;-88
2022/09/23 04:58:35;;;;;;;16.00;11.65;;;5.80;99.90;;;;;;6271551;22;20203;-87
2022/09/23 05:01:16;;;;;;;11.73;9.55;;;5.80;99.90;;;;;;6266593;22;20498;-87
2022/09/23 05:03:43;;;;;;;17.25;9.68;;;5.90;99.90;;;;;;6267553;22;20180;-87
2022/09/23 05:06:14;;;;;;;12.48;10.05;;;5.90;99.90;;;;;;6260391;22;20168;-87
2022/09/23 05:08:40;;;;;;;12.10;8.40;;;5.90;99.90;;;;;;6271304;22;20129;-87
2022/09/23 05:11:06;;;;;;;13.32;8.77;;;7.80;99.90;;;;;;6267836;22;20148;-88
2022/09/23 05:13:32;;;;;;;13.03;9.30;;;;;;;;;;6265048;22;20928;-86
2022/09/23 05:16:03;;;;;;;15.10;9.68;;;5.90;99.90;;;;;;6269079;22;20144;-87
2022/09/23 05:18:33;;;;;;;12.05;7.55;;;6.00;99.90;;;;;;6268524;22;20777;-86
2022/09/23 05:20:59;;;;;;;10.48;7.82;;;6.00;99.90;;;;;;6269433;22;20213;-87
2022/09/23 05:23:26;;;;;;;13.30;7.23;;;6.10;99.90;;;;;;6267863;22;20175;-87
2022/09/23 05:25:57;;;;;;;11.18;8.40;;;6.10;99.90;;;;;;6270137;22;20147;-87
2022/09/23 05:28:23;;;;;;;16.30;7.30;;;6.20;99.90;;;;;;6267198;22;20152;-87
2022/09/23 05:30:49;;;;;;;10.77;8.20;;;6.40;99.90;;;;;;6264481;22;20242;-87
2022/09/23 05:33:14;;;;;;;21.63;10.17;;;7.20;99.90;;;;;;6284716;22;21182;-87
2022/09/23 05:35:46;;;;;;;15.13;9.90;;;8.60;99.90;;;;;;6280882;22;20716;-88
2022/09/23 05:38:11;;;;;;;13.15;9.82;;;8.60;99.90;;;;;;6271331;22;20171;-86
2022/09/23 05:40:37;;;;;;;10.77;7.63;;;9.30;99.90;;;;;;6272367;22;20136;-87
2022/09/23 05:43:03;;;;;;;10.83;8.27;;;;;;;;;;6270264;22;20189;-85
2022/09/23 05:45:30;;;;;;;9.13;6.93;;;;;;;;;;6274675;22;20227;-85
2022/09/23 05:47:56;;;;;;;9.10;6.38;;;;;;;;;;6290621;22;20738;-85
2022/09/23 05:50:22;;;;;;;6.73;6.07;;;13.40;99.90;;;;;;6272551;22;20202;-88
2022/09/23 05:52:48;;;;;;;5.80;4.30;;;15.40;99.90;;;;;;6269016;22;20399;-87
2022/09/23 05:55:13;;;;;;;9.57;6.40;;;15.70;99.90;;;;;;6294728;22;20203;-88
2022/09/23 05:57:39;;;;;;;6.90;5.00;;;;;;;;;;6294428;22;20168;-87
2022/09/23 06:00:05;;;;;;;7.00;4.90;;;17.90;99.90;;;;;;6278218;22;20159;-88
2022/09/23 06:02:31;;;;;;;6.43;5.13;;;19.20;99.90;;;;;;6271938;22;21086;-87
2022/09/23 06:04:57;;;;;;;6.00;5.10;;;19.40;99.90;;;;;;6276300;22;20453;-87
2022/09/23 06:07:23;;;;;;;7.37;6.13;;;19.70;99.90;;;;;;6270060;22;20371;-87
2022/09/23 06:09:49;;;;;;;14.53;5.10;;;;;;;;;;6265540;22;20152;-88
2022/09/23 06:12:15;;;;;;;4.83;4.33;;;;;;;;;;6266932;22;20152;-88
2022/09/23 06:14:41;;;;;;;6.23;3.90;;;;;;;;;;6269596;22;20425;-88
2022/09/23 06:17:07;;;;;;;4.03;3.70;;;;;;;;;;6269302;22;20382;-88
2022/09/23 06:19:32;;;;;;;6.70;4.60;;;21.10;92.50;;;;;;6273173;22;20408;-88
2022/09/23 06:21:58;;;;;;;6.80;4.60;;;21.20;93.10;;;;;;6266317;22;20374;-88
2022/09/23 06:24:24;;;;;;;11.47;5.10;;;;;;;;;;6270230;22;20593;-87
2022/09/23 06:26:50;;;;;;;6.77;5.40;;;;;;;;;;6267352;22;20201;-86
2022/09/23 06:29:17;;;;;;;7.37;5.33;;;;;;;;;;6271047;22;20429;-88
2022/09/23 06:31:42;;;;;;;6.80;5.50;;;25.10;85.00;;;;;;6271414;22;20366;-87
2022/09/23 06:34:09;;;;;;;6.70;4.87;;;25.70;74.00;;;;;;6272222;22;20401;-89
2022/09/23 06:36:35;;;;;;;4.30;3.90;;;;;;;;;;6266125;22;20839;-88
2022/09/23 06:39:01;;;;;;;5.40;4.57;;;;;;;;;;6266665;22;20512;-87
2022/09/23 06:41:27;;;;;;;4.30;3.90;;;25.30;72.60;;;;;;6272253;22;20397;-88
2022/09/23 06:43:53;;;;;;;7.83;4.37;;;;;;;;;;6272280;22;20402;-87
2022/09/23 06:46:19;;;;;;;4.80;3.90;;;25.50;69.60;;;;;;6265459;22;20159;-86
2022/09/23 06:48:46;;;;;;;7.20;4.77;;;;;;;;;;6263762;22;20383;-87
2022/09/23 06:51:17;;;;;;;7.93;5.00;;;19.80;81.00;;;;;;6265933;22;20397;-87
2022/09/23 06:53:44;;;;;;;9.13;5.30;;;19.60;83.90;;;;;;6267342;22;20399;-86
2022/09/23 06:56:10;;;;;;;5.83;4.33;;;19.40;89.50;;;;;;6265076;22;20911;-86
2022/09/23 06:58:37;;;;;;;7.00;4.83;;;19.40;91.30;;;;;;6265793;22;20430;-86
2022/09/23 07:01:06;;;;;;;5.10;4.20;;;19.30;91.50;;;;;;6270758;22;20955;-86
2022/09/23 07:03:32;;;;;;;5.00;4.50;;;;;;;;;;6291690;22;20382;-87
2022/09/23 07:05:58;;;;;;;6.70;5.67;;;20.80;89.70;;;;;;6271741;22;20406;-87
2022/09/23 07:08:25;;;;;;;4.73;4.17;;;;;;;;;;6263579;22;20393;-87
2022/09/23 07:10:58;;;;;;;8.80;5.23;;;22.20;89.00;;;;;;6286027;22;20379;-87
2022/09/23 07:13:24;;;;;;;4.90;3.97;;;;;;;;;;6276012;22;20427;-87
2022/09/23 07:15:50;;;;;;;7.03;4.00;;;22.40;88.10;;;;;;6271796;22;20389;-88
2022/09/23 07:18:16;;;;;;;14.27;3.97;;;23.60;86.60;;;;;;6270587;22;20402;-88
2022/09/23 07:20:42;;;;;;;10.33;3.87;;;23.60;77.80;;;;;;6270747;22;20477;-87
2022/09/23 07:23:08;;;;;;;3.63;2.97;;;;;;;;;;6266638;22;20414;-88
2022/09/23 07:25:34;;;;;;;3.37;3.03;;;;;;;;;;6269306;22;20136;-87
2022/09/23 07:28:00;;;;;;;4.40;3.10;;;;;;;;;;6266512;22;20443;-86
2022/09/23 07:30:26;;;;;;;6.13;2.97;;;;;;;;;;6267031;22;20374;-88
2022/09/23 07:32:52;;;;;;;3.93;3.00;;;;;;;;;;6263744;22;20441;-87
2022/09/23 07:35:18;;;;;;;8.63;2.90;;;;;;;;;;6263641;22;20383;-87
2022/09/23 07:37:44;;;;;;;5.23;2.70;;;;;;;;;;6265069;22;20362;-87
2022/09/23 07:40:11;;;;;;;4.93;3.00;;;;;;;;;;6264867;22;21289;-87
2022/09/23 07:42:39;;;;;;;2.87;2.67;;;;;;;;;;6264476;22;20484;-88
2022/09/23 07:45:07;;;;;;;3.33;3.03;;;23.20;67.10;;;;;;6265104;22;20379;-87
2022/09/23 07:47:33;;;;;;;3.83;2.67;;;22.90;70.90;;;;;;6263938;22;20727;-86
2022/09/23 07:49:59;;;;;;;2.90;2.33;;;;;;;;;;6265829;22;21041;-87
2022/09/23 07:52:25;;;;;;;7.20;3.20;;;;;;;;;;6263743;22;20394;-87
2022/09/23 07:54:51;;;;;;;8.33;3.40;;;;;;;;;;6267128;22;20381;-86
2022/09/23 07:57:17;;;;;;;2.93;2.60;;;;;;;;;;6266570;22;20776;-87
2022/09/23 07:59:43;;;;;;;3.23;2.53;;;21.70;71.80;;;;;;6264425;22;20440;-86
2022/09/23 08:02:14;;;;;;;3.50;2.83;;;20.70;72.80;;;;;;6264561;22;20836;-87
2022/09/23 08:04:40;;;;;;;3.77;2.77;;;;;;;;;;6267870;22;20583;-86
2022/09/23 08:07:06;;;;;;;3.33;2.90;;;;;;;;;;6267019;22;20374;-86
2022/09/23 08:09:40;;;;;;;4.50;3.17;;;23.00;72.20;;;;;;6266382;22;20381;-86
2022/09/23 08:12:08;;;;;;;2.70;2.50;;;22.60;68.10;;;;;;6266935;22;20359;-86
2022/09/23 08:14:33;;;;;;;7.37;4.37;;;;;;;;;;6266928;22;20389;-88
2022/09/23 08:16:59;;;;;;;4.37;3.27;;;;;;;;;;6267114;22;20378;-88
2022/09/23 08:19:25;;;;;;;4.40;2.70;;;;;;;;;;6262690;22;20551;-87
2022/09/23 08:21:53;;;;;;;2.77;2.50;;;;;;;;;;6266149;22;20379;-87
2022/09/23 08:24:20;;;;;;;4.13;2.87;;;21.50;72.80;;;;;;6264944;22;20486;-87
2022/09/23 08:26:47;;;;;;;3.27;2.83;;;20.90;72.60;;;;;;6269963;22;20438;-87
2022/09/23 08:29:17;;;;;;;7.30;3.03;;;19.10;75.50;;;;;;6268328;22;20374;-86
2022/09/23 08:31:43;;;;;;;4.30;2.70;;;;;;;;;;6274625;22;20466;-90
2022/09/23 08:34:09;;;;;;;4.20;3.37;;;;;;;;;;6270743;22;20414;-91
2022/09/23 08:36:36;;;;;;;3.63;2.87;;;;;;;;;;6268752;22;20371;-91
2022/09/23 08:39:03;;;;;;;3.70;2.37;;;19.90;80.60;;;;;;6271216;22;20759;-89
2022/09/23 08:41:35;;;;;;;6.20;2.97;;;20.70;80.00;;;;;;6271113;22;20455;-88
2022/09/23 08:44:18;;;;;;;2.70;2.40;;;20.60;80.20;;;;;;6271874;22;20351;-90
2022/09/23 08:47:18;;;;;;;3.53;3.10;;;21.90;77.90;;;;;;6267763;22;20392;-91
2022/09/23 08:50:07;;;;;;;3.43;3.00;;;22.90;73.10;;;;;;6264712;22;21013;-89
2022/09/23 08:52:51;;;;;;;3.77;3.00;;;22.70;73.60;;;;;;6268769;22;20391;-88
2022/09/23 08:55:18;;;;;;;3.33;3.03;;;;;;;;;;6272096;22;20370;-88
2022/09/23 08:57:59;;;;;;;6.67;3.50;;;22.90;73.30;;;;;;6271895;22;20754;-89
2022/09/23 09:00:33;;;;;;;3.93;3.07;;;21.90;74.10;;;;;;6269340;22;20374;-89
2022/09/23 09:02:59;;;;;;;4.67;3.10;;;;;;;;;;6269209;22;20405;-88
2022/09/23 09:05:27;;;;;;;6.00;3.20;;;19.50;79.60;;;;;;6268503;22;20381;-88
2022/09/23 09:07:56;;;;;;;9.40;3.43;;;19.30;80.00;;;;;;6265284;22;20378;-90
2022/09/23 09:10:25;;;;;;;6.57;2.87;;;19.90;82.30;;;;;;6270106;22;20386;-88
2022/09/23 09:13:06;;;;;;;4.30;3.03;;;21.50;78.00;;;;;;6267344;22;21001;-89
2022/09/23 09:15:38;;;;;;;3.63;2.73;;;22.90;75.50;;;;;;6268865;22;20370;-89
2022/09/23 09:18:20;;;;;;;2.77;2.40;;;22.90;76.20;;;;;;6269390;22;20421;-89
2022/09/23 09:21:01;;;;;;;7.80;3.13;;;22.90;73.50;;;;;;6271089;22;20389;-90
2022/09/23 09:23:56;;;;;;;6.30;2.97;;;23.70;74.10;;;;;;6269969;22;20402;-89
2022/09/23 09:26:27;;;;;;;3.70;2.97;;;25.60;67.90;;;;;;6273379;22;20370;-89
2022/09/23 09:29:12;;;;;;;7.70;3.83;;;26.10;69.00;;;;;;6272628;22;20905;-88
2022/09/23 09:31:46;;;;;;;5.80;3.90;;;26.30;68.50;;;;;;6273562;22;20423;-88
2022/09/23 09:34:33;;;;;;;3.80;2.73;;;25.90;63.10;;;;;;6271723;22;20477;-89
2022/09/23 09:37:10;;;;;;;6.80;3.83;;;25.90;65.40;;;;;;6269627;22;20415;-90
2022/09/23 09:39:36;;;;;;;9.63;3.33;;;;;;;;;;6274075;22;21217;-88
2022/09/23 09:42:03;;;;;;;6.70;4.47;;;25.30;63.90;;;;;;6271767;22;20410;-91
2022/09/23 09:44:47;;;;;;;4.60;3.90;;;25.40;64.60;;;;;;6275425;22;20389;-89
2022/09/23 09:47:34;;;;;;;5.97;3.43;;;22.70;70.10;;;;;;6274415;22;20348;-90
2022/09/23 09:50:17;;;;;;;4.70;3.37;;;22.80;69.80;;;;;;6271649;22;20386;-90
2022/09/23 09:52:43;;;;;;;5.30;3.90;;;;;;;;;;6272631;22;20634;-90
2022/09/23 09:55:12;;;;;;;3.73;3.30;;;23.00;71.80;;;;;;6275617;22;20767;-92
2022/09/23 09:57:47;;;;;;;6.40;3.20;;;23.50;69.50;;;;;;6276398;22;20465;-90
2022/09/23 10:00:25;;;;;;;7.47;4.10;;;23.40;70.30;;;;;;6275214;22;20385;-89
2022/09/23 10:02:58;;;;;;;5.13;3.70;;;22.50;71.30;;;;;;6272921;22;20378;-89
2022/09/23 10:05:46;;;;;;;4.20;3.53;;;22.50;72.20;;;;;;6275504;22;20400;-90
2022/09/23 10:08:23;;;;;;;4.40;2.97;;;22.40;74.50;;;;;;6274462;22;20614;-90
2022/09/23 10:11:04;;;;;;;5.43;3.83;;;22.30;72.50;;;;;;6275163;22;20366;-89
2022/09/23 10:13:30;;;;;;;4.03;3.63;;;21.90;73.70;;;;;;6272606;22;20923;-90
2022/09/23 10:15:59;;;;;;;4.73;3.40;;;20.40;80.00;;;;;;6275100;22;20375;-91
2022/09/23 10:18:37;;;;;;;4.03;3.50;;;20.30;80.80;;;;;;6270863;22;20923;-90
2022/09/23 10:21:19;;;;;;;4.23;3.30;;;20.40;81.20;;;;;;6272272;22;20379;-90
2022/09/23 10:23:47;;;;;;;7.67;3.50;;;19.70;87.80;;;;;;6266775;22;20696;-91
2022/09/23 10:26:16;;;;;;;5.70;4.00;;;19.50;84.80;;;;;;6272013;22;20428;-87
2022/09/23 10:28:54;;;;;;;4.23;3.40;;;19.50;85.50;;;;;;6272951;22;20375;-89
2022/09/23 10:31:29;;;;;;;7.20;4.00;;;18.50;88.20;;;;;;6271535;22;20468;-89
2022/09/23 10:34:01;;;;;;;4.83;3.20;;;19.50;88.50;;;;;;6269101;22;20392;-89
2022/09/23 10:36:29;;;;;;;8.33;3.17;;;19.50;89.90;;;;;;6270526;22;20382;-90
2022/09/23 10:47:51;;;;;;;5.87;3.90;;;19.60;87.60;;;;;;6271815;22;20393;-89
2022/09/23 10:50:48;;;;;;;3.90;2.70;;;19.60;88.80;;;;;;6271969;22;20374;-90
2022/09/23 10:53:32;;;;;;;5.33;3.97;;;19.90;89.60;;;;;;6275960;22;20642;-90
2022/09/23 10:56:29;;;;;;;3.87;3.10;;;19.60;89.90;;;;;;6274381;22;20354;-91
2022/09/23 10:59:26;;;;;;;4.63;3.63;;;19.80;90.50;;;;;;6278238;22;20399;-90
2022/09/23 11:01:58;;;;;;;8.90;3.80;;;;;;;;;;6275450;22;20395;-90
2022/09/23 11:04:23;;;;;;;3.90;2.70;;;;;;;;;;6276379;22;20385;-91
2022/09/23 11:07:14;;;;;;;4.50;3.50;;;20.10;88.10;;;;;;6274716;22;20378;-91
2022/09/23 11:10:18;;;;;;;3.13;2.83;;;19.80;89.70;;;;;;6272625;22;20381;-89
2022/09/23 11:12:50;;;;;;;5.50;2.93;;;19.70;90.20;;;;;;6271960;22;20416;-89
2022/09/23 11:15:34;;;;;;;3.60;2.57;;;19.70;90.50;;;;;;6273649;22;20440;-88
2022/09/23 11:18:35;;;;;;;5.43;3.37;;;20.30;89.50;;;;;;6276165;22;20378;-88
2022/09/23 11:21:35;;;;;;;4.27;2.73;;;19.50;90.00;;;;;;6272896;22;20457;-91
2022/09/23 11:24:07;;;;;;;7.63;3.87;;;19.60;90.00;;;;;;6271782;22;20386;-89
2022/09/23 11:27:06;;;;;;;5.23;3.40;;;19.70;90.30;;;;;;6276990;22;20723;-88
2022/09/23 11:29:53;;;;;;;3.33;3.03;;;19.70;90.40;;;;;;6282030;22;20382;-91
2022/09/23 11:32:56;;;;;;;7.03;3.07;;;20.00;91.00;;;;;;6275899;22;20421;-90
2022/09/23 11:35:40;;;;;;;5.77;3.50;;;19.70;91.10;;;;;;6271363;22;20453;-89
2022/09/23 11:38:29;;;;;;;3.07;2.73;;;19.40;91.00;;;;;;6273379;22;20491;-88
2022/09/23 11:41:01;;;;;;;3.80;3.00;;;19.60;92.00;;;;;;6275806;22;20416;-88
2022/09/23 11:43:34;;;;;;;4.40;3.20;;;19.60;92.30;;;;;;6273174;22;20394;-88
2022/09/23 11:46:29;;;;;;;5.73;2.70;;;19.90;91.90;;;;;;6276658;22;20856;-91
2022/09/23 11:49:25;;;;;;;4.70;2.77;;;20.10;90.90;;;;;;6270540;22;20375;-91
2022/09/23 11:52:12;;;;;;;4.73;2.93;;;19.90;90.80;;;;;;6275051;22;20412;-90
2022/09/23 11:55:05;;;;;;;4.63;2.83;;;19.80;91.30;;;;;;6278162;22;20523;-89
2022/09/23 11:57:50;;;;;;;5.37;2.80;;;19.70;91.30;;;;;;6274510;22;20378;-89
2022/09/23 12:00:18;;;;;;;2.87;2.60;;;19.50;92.60;;;;;;6276658;22;20425;-92
2022/09/23 12:03:06;;;;;;;7.87;2.27;;;19.40;91.70;;;;;;6276893;22;20385;-91
2022/09/23 12:05:38;;;;;;;3.70;2.50;;;19.00;92.00;;;;;;6276040;22;20387;-89
2022/09/23 12:08:28;;;;;;;2.50;2.30;;;18.80;92.90;;;;;;6275912;22;20367;-90
2022/09/23 12:11:16;;;;;;;3.13;2.80;;;18.50;93.50;;;;;;6272524;22;20365;-89
2022/09/23 12:13:55;;;;;;;5.33;3.53;;;18.40;93.80;;;;;;6270021;22;20391;-89
2022/09/23 12:17:07;;;;;;;4.13;2.70;;;18.30;93.70;;;;;;6270506;22;20371;-89
2022/09/23 12:19:54;;;;;;;3.50;2.60;;;18.50;93.90;;;;;;6269977;22;21200;-90
2022/09/23 12:22:44;;;;;;;4.20;2.67;;;18.30;94.40;;;;;;6270784;22;20716;-90
2022/09/23 12:25:32;;;;;;;2.93;2.20;;;18.40;95.30;;;;;;6274281;22;20479;-91
2022/09/23 12:28:05;;;;;;;3.73;2.60;;;18.60;95.10;;;;;;6272941;22;20363;-89
2022/09/23 12:30:38;;;;;;;10.70;2.97;;;18.80;95.60;;;;;;6272065;22;20367;-88
2022/09/23 12:33:27;;;;;;;4.80;2.43;;;19.50;94.30;;;;;;6270038;22;20418;-89
2022/09/23 12:36:00;;;;;;;4.10;3.20;;;19.90;93.00;;;;;;6269954;22;20355;-90
2022/09/23 12:38:52;;;;;;;3.73;2.37;;;20.80;93.70;;;;;;6269871;22;20425;-88
2022/09/23 12:41:36;;;;;;;5.80;2.73;;;19.90;91.50;;;;;;6269775;22;20374;-90
2022/09/23 12:44:13;;;;;;;5.60;2.77;;;19.90;91.90;;;;;;6268912;22;20378;-91
2022/09/23 12:46:44;;;;;;;6.80;3.30;;;20.00;92.50;;;;;;6270021;22;20392;-91
2022/09/23 12:49:28;;;;;;;6.00;2.97;;;20.10;92.20;;;;;;6266906;22;20396;-90
2022/09/23 12:52:15;;;;;;;4.63;2.60;;;20.00;90.20;;;;;;6270705;22;20410;-92
2022/09/23 12:54:46;;;;;;;4.23;2.53;;;20.00;90.70;;;;;;6272426;22;20354;-89
2022/09/23 12:57:33;;;;;;;4.57;2.70;;;19.40;93.40;;;;;;6271620;22;20394;-89
2022/09/23 13:00:11;;;;;;;3.10;2.17;;;19.40;93.80;;;;;;6243769;22;20534;-89
2022/09/23 13:02:41;;;;;;;4.73;3.00;;;19.70;94.90;;;;;;6259284;22;20420;-89
2022/09/23 13:07:51;;;;;;;2.77;2.57;;;;;;;;;;6268206;22;20408;-89
2022/09/23 13:10:27;;;;;;;7.03;4.00;;;19.50;94.40;;;;;;6271214;22;20393;-89
2022/09/23 13:12:56;;;;;;;4.07;3.77;;;19.40;94.10;;;;;;6271062;22;20899;-89
2022/09/23 13:15:22;;;;;;;3.67;3.33;;;;;;;;;;6272278;22;20443;-88
2022/09/23 13:17:48;;;;;;;5.00;3.17;;;;;;;;;;6273053;22;20865;-89
2022/09/23 13:20:19;;;;;;;5.33;3.03;;;19.40;94.20;;;;;;6276461;22;20404;-91
2022/09/23 13:22:48;;;;;;;3.30;3.00;;;19.50;95.00;;;;;;6273664;22;20812;-89
2022/09/23 13:25:23;;;;;;;3.40;2.53;;;19.70;94.00;;;;;;6274679;22;20374;-91
2022/09/23 13:27:52;;;;;;;3.80;2.47;;;19.90;94.80;;;;;;6274826;22;20382;-91
2022/09/23 13:30:22;;;;;;;6.90;3.40;;;19.50;93.70;;;;;;6276018;22;20379;-91
2022/09/23 13:33:03;;;;;;;3.83;3.27;;;19.60;92.60;;;;;;6274331;22;20434;-88
2022/09/23 13:35:34;;;;;;;2.63;2.40;;;19.90;93.40;;;;;;6267634;22;20402;-92
2022/09/23 13:38:29;;;;;;;8.50;3.17;;;19.90;93.70;;;;;;6262242;22;21172;-87
2022/09/23 13:41:09;;;;;;;5.27;2.97;;;19.70;93.70;;;;;;6265626;22;20397;-89
2022/09/23 13:43:38;;;;;;;3.53;2.80;;;19.40;93.80;;;;;;6270598;22;20619;-91
2022/09/23 13:46:12;;;;;;;4.23;2.80;;;19.70;94.30;;;;;;6272115;22;20383;-89
2022/09/23 13:48:38;;;;;;;5.30;3.10;;;;;;;;;;6267953;22;20443;-91
2022/09/23 13:51:09;;;;;;;2.67;2.23;;;19.30;94.60;;;;;;6268962;22;20394;-89
2022/09/23 13:53:35;;;;;;;3.17;2.87;;;;;;;;;;6269854;22;20366;-89